sensor_id;sensor_type;location;lat;lon;timestamp;temperature;humidity
22532;DHT22;11432;46.924;7.114;2023-05-02T00:00:14;10.40;99.90
22532;DHT22;11432;46.924;7.114;2023-05-02T00:02:40;10.50;99.90
22532;DHT22;11432;46.924;7.114;2023-05-02T00:05:06;10.50;99.90
22532;DHT22;11432;46.924;7.114;2023-05-02T00:07:32;10.50;99.90
22532;DHT22;11432;46.924;7.114;2023-05-02T00:09:58;10.50;99.90
22532;DHT22;11432;46.924;7.114;2023-05-02T00:12:26;10.40;99.90
22532;DHT22;11432;46.924;7.114;2023-05-02T00:14:52;10.40;99.90
22532;DHT22;11432;46.924;7.114;2023-05-02T00:17:18;10.40;99.90
22532;DHT22;11432;46.924;7.114;2023-05-02T00:19:45;10.30;99.90
22532;DHT22;11432;46.924;7.114;2023-05-02T00:22:11;10.30;99.90
22532;DHT22;11432;46.924;7.114;2023-05-02T00:24:36;10.30;99.90
22532;DHT22;11432;46.924;7.114;2023-05-02T00:27:02;10.30;99.90
22532;DHT22;11432;46.924;7.114;2023-05-02T00:29:28;10.30;99.90
22532;DHT22;11432;46.924;7.114;2023-05-02T00:31:53;10.20;99.90
22532;DHT22;11432;46.924;7.114;2023-05-02T00:34:19;10.20;99.90
22532;DHT22;11432;46.924;7.114;2023-05-02T00:36:45;10.20;99.90
22532;DHT22;11432;46.924;7.114;2023-05-02T00:39:10;10.20;99.90
22532;DHT22;11432;46.924;7.114;2023-05-02T00:41:36;10.10;99.90
22532;DHT22;11432;46.924;7.114;2023-05-02T00:44:01;10.10;99.90
22532;DHT22;11432;46.924;7.114;2023-05-02T00:46:27;10.00;99.90
22532;DHT22;11432;46.924;7.114;2023-05-02T00:48:53;10.00;99.90
22532;DHT22;11432;46.924;7.114;2023-05-02T00:51:19;10.00;99.90
22532;DHT22;11432;46.924;7.114;2023-05-02T00:53:45;9.90;99.90
22532;DHT22;11432;46.924;7.114;2023-05-02T00:56:10;9.90;99.90
22532;DHT22;11432;46.924;7.114;2023-05-02T00:58:37;9.90;99.90
22532;DHT22;11432;46.924;7.114;2023-05-02T01:07:34;9.80;99.90
22532;DHT22;11432;46.924;7.114;2023-05-02T01:13:03;9.70;99.90
22532;DHT22;11432;46.924;7.114;2023-05-02T01:15:32;9.60;99.90
22532;DHT22;11432;46.924;7.114;2023-05-02T01:18:00;9.50;99.90
22532;DHT22;11432;46.924;7.114;2023-05-02T01:20:28;9.50;99.90
22532;DHT22;11432;46.924;7.114;2023-05-02T01:22:59;9.40;99.90
22532;DHT22;11432;46.924;7.114;2023-05-02T01:29:01;9.30;99.90
22532;DHT22;11432;46.924;7.114;2023-05-02T01:31:40;9.30;99.90
22532;DHT22;11432;46.924;7.114;2023-05-02T01:34:10;9.20;99.90
22532;DHT22;11432;46.924;7.114;2023-05-02T01:36:40;9.10;99.90
22532;DHT22;11432;46.924;7.114;2023-05-02T01:39:09;9.00;99.90
22532;DHT22;11432;46.924;7.114;2023-05-02T01:41:35;8.90;99.90
22532;DHT22;11432;46.924;7.114;2023-05-02T01:44:02;8.90;99.90
22532;DHT22;11432;46.924;7.114;2023-05-02T01:46:35;8.80;99.90
22532;DHT22;11432;46.924;7.114;2023-05-02T01:49:05;8.70;99.90
22532;DHT22;11432;46.924;7.114;2023-05-02T01:51:36;8.60;99.90
22532;DHT22;11432;46.924;7.114;2023-05-02T01:54:07;8.60;99.90
22532;DHT22;11432;46.924;7.114;2023-05-02T01:56:42;8.50;99.90
22532;DHT22;11432;46.924;7.114;2023-05-02T01:59:17;8.50;99.90
22532;DHT22;11432;46.924;7.114;2023-05-02T02:01:44;8.50;99.90
22532;DHT22;11432;46.924;7.114;2023-05-02T02:04:11;8.50;99.90
22532;DHT22;11432;46.924;7.114;2023-05-02T02:06:38;8.40;99.90
22532;DHT22;11432;46.924;7.114;2023-05-02T02:09:07;8.40;99.90
22532;DHT22;11432;46.924;7.114;2023-05-02T02:11:45;8.40;99.90
22532;DHT22;11432;46.924;7.114;2023-05-02T02:14:17;8.40;99.90
22532;DHT22;11432;46.924;7.114;2023-05-02T02:16:44;8.40;99.90
22532;DHT22;11432;46.924;7.114;2023-05-02T02:19:12;8.50;99.90
22532;DHT22;11432;46.924;7.114;2023-05-02T02:21:42;8.40;99.90
22532;DHT22;11432;46.924;7.114;2023-05-02T02:24:09;8.50;99.90
22532;DHT22;11432;46.924;7.114;2023-05-02T02:26:35;8.50;99.90
22532;DHT22;11432;46.924;7.114;2023-05-02T02:29:02;8.40;99.90
22532;DHT22;11432;46.924;7.114;2023-05-02T02:31:33;8.40;99.90
22532;DHT22;11432;46.924;7.114;2023-05-02T02:34:00;8.50;99.90
22532;DHT22;11432;46.924;7.114;2023-05-02T02:36:46;8.40;99.90
22532;DHT22;11432;46.924;7.114;2023-05-02T02:44:21;8.50;99.90
22532;DHT22;11432;46.924;7.114;2023-05-02T02:47:01;8.50;99.90
22532;DHT22;11432;46.924;7.114;2023-05-02T02:52:20;8.50;99.90
22532;DHT22;11432;46.924;7.114;2023-05-02T02:54:59;8.60;99.90
22532;DHT22;11432;46.924;7.114;2023-05-02T02:57:44;8.60;99.90
22532;DHT22;11432;46.924;7.114;2023-05-02T03:00:17;8.60;99.90
22532;DHT22;11432;46.924;7.114;2023-05-02T03:02:45;8.70;99.90
22532;DHT22;11432;46.924;7.114;2023-05-02T03:05:12;8.70;99.90
22532;DHT22;11432;46.924;7.114;2023-05-02T03:07:39;8.80;99.90
22532;DHT22;11432;46.924;7.114;2023-05-02T03:10:05;8.80;99.90
22532;DHT22;11432;46.924;7.114;2023-05-02T03:12:31;8.80;99.90
22532;DHT22;11432;46.924;7.114;2023-05-02T03:15:13;8.70;99.90
22532;DHT22;11432;46.924;7.114;2023-05-02T03:17:39;8.70;99.90
22532;DHT22;11432;46.924;7.114;2023-05-02T03:20:05;8.70;99.90
22532;DHT22;11432;46.924;7.114;2023-05-02T03:22:30;8.60;99.90
22532;DHT22;11432;46.924;7.114;2023-05-02T03:24:56;8.70;99.90
22532;DHT22;11432;46.924;7.114;2023-05-02T03:27:22;8.60;99.90
22532;DHT22;11432;46.924;7.114;2023-05-02T03:29:47;8.60;99.90
22532;DHT22;11432;46.924;7.114;2023-05-02T03:32:13;8.50;99.90
22532;DHT22;11432;46.924;7.114;2023-05-02T03:34:38;8.50;99.90
22532;DHT22;11432;46.924;7.114;2023-05-02T03:37:06;8.40;99.90
22532;DHT22;11432;46.924;7.114;2023-05-02T03:39:31;8.40;99.90
22532;DHT22;11432;46.924;7.114;2023-05-02T03:41:57;8.30;99.90
22532;DHT22;11432;46.924;7.114;2023-05-02T03:44:22;8.30;99.90
22532;DHT22;11432;46.924;7.114;2023-05-02T03:46:48;8.20;99.90
22532;DHT22;11432;46.924;7.114;2023-05-02T03:49:14;8.20;99.90
22532;DHT22;11432;46.924;7.114;2023-05-02T03:51:39;8.20;99.90
22532;DHT22;11432;46.924;7.114;2023-05-02T03:54:05;8.10;99.90
22532;DHT22;11432;46.924;7.114;2023-05-02T03:56:31;8.10;99.90
22532;DHT22;11432;46.924;7.114;2023-05-02T03:58:57;8.10;99.90
22532;DHT22;11432;46.924;7.114;2023-05-02T04:01:22;8.00;99.90
22532;DHT22;11432;46.924;7.114;2023-05-02T04:03:49;8.10;99.90
22532;DHT22;11432;46.924;7.114;2023-05-02T04:06:14;8.00;99.90
22532;DHT22;11432;46.924;7.114;2023-05-02T04:08:40;8.00;99.90
22532;DHT22;11432;46.924;7.114;2023-05-02T04:11:06;8.00;99.90
22532;DHT22;11432;46.924;7.114;2023-05-02T04:13:31;7.90;99.90
22532;DHT22;11432;46.924;7.114;2023-05-02T04:15:57;7.80;99.90
22532;DHT22;11432;46.924;7.114;2023-05-02T04:18:23;7.80;99.90
22532;DHT22;11432;46.924;7.114;2023-05-02T04:20:49;7.90;99.90
22532;DHT22;11432;46.924;7.114;2023-05-02T04:23:15;7.90;99.90
22532;DHT22;11432;46.924;7.114;2023-05-02T04:25:50;7.90;99.90
22532;DHT22;11432;46.924;7.114;2023-05-02T04:28:16;7.90;99.90
22532;DHT22;11432;46.924;7.114;2023-05-02T04:30:41;7.90;99.90
22532;DHT22;11432;46.924;7.114;2023-05-02T04:33:07;7.90;99.90
22532;DHT22;11432;46.924;7.114;2023-05-02T04:35:33;7.90;99.90
22532;DHT22;11432;46.924;7.114;2023-05-02T04:37:58;7.90;99.90
22532;DHT22;11432;46.924;7.114;2023-05-02T04:40:24;8.00;99.90
22532;DHT22;11432;46.924;7.114;2023-05-02T04:42:49;8.10;99.90
22532;DHT22;11432;46.924;7.114;2023-05-02T04:45:15;8.10;99.90
22532;DHT22;11432;46.924;7.114;2023-05-02T04:47:41;8.10;99.90
22532;DHT22;11432;46.924;7.114;2023-05-02T04:50:07;8.10;99.90
22532;DHT22;11432;46.924;7.114;2023-05-02T04:52:34;8.00;99.90
22532;DHT22;11432;46.924;7.114;2023-05-02T04:54:59;8.10;99.90
22532;DHT22;11432;46.924;7.114;2023-05-02T04:57:25;8.10;99.90
22532;DHT22;11432;46.924;7.114;2023-05-02T04:59:50;8.00;99.90
22532;DHT22;11432;46.924;7.114;2023-05-02T05:02:16;8.00;99.90
22532;DHT22;11432;46.924;7.114;2023-05-02T05:04:41;8.10;99.90
22532;DHT22;11432;46.924;7.114;2023-05-02T05:07:07;8.10;99.90
22532;DHT22;11432;46.924;7.114;2023-05-02T05:09:33;9.60;99.90
22532;DHT22;11432;46.924;7.114;2023-05-02T05:11:59;9.30;99.90
22532;DHT22;11432;46.924;7.114;2023-05-02T05:14:24;9.10;99.90
22532;DHT22;11432;46.924;7.114;2023-05-02T05:16:50;8.90;99.90
22532;DHT22;11432;46.924;7.114;2023-05-02T05:19:16;8.70;99.90
22532;DHT22;11432;46.924;7.114;2023-05-02T05:21:41;8.70;99.90
22532;DHT22;11432;46.924;7.114;2023-05-02T05:24:07;8.60;99.90
22532;DHT22;11432;46.924;7.114;2023-05-02T05:26:33;8.60;99.90
22532;DHT22;11432;46.924;7.114;2023-05-02T05:28:58;8.70;99.90
22532;DHT22;11432;46.924;7.114;2023-05-02T05:31:24;8.80;99.90
22532;DHT22;11432;46.924;7.114;2023-05-02T05:33:50;8.80;99.90
22532;DHT22;11432;46.924;7.114;2023-05-02T05:36:15;8.70;99.90
22532;DHT22;11432;46.924;7.114;2023-05-02T05:38:41;8.70;99.90
22532;DHT22;11432;46.924;7.114;2023-05-02T05:41:07;8.60;99.90
22532;DHT22;11432;46.924;7.114;2023-05-02T05:43:33;8.60;99.90
22532;DHT22;11432;46.924;7.114;2023-05-02T05:45:59;8.70;99.90
22532;DHT22;11432;46.924;7.114;2023-05-02T05:49:36;8.70;99.90
22532;DHT22;11432;46.924;7.114;2023-05-02T05:52:01;8.80;99.90
22532;DHT22;11432;46.924;7.114;2023-05-02T05:54:27;8.80;99.90
22532;DHT22;11432;46.924;7.114;2023-05-02T05:56:53;9.00;99.90
22532;DHT22;11432;46.924;7.114;2023-05-02T05:59:19;9.10;99.90
22532;DHT22;11432;46.924;7.114;2023-05-02T06:01:44;9.20;99.90
22532;DHT22;11432;46.924;7.114;2023-05-02T06:04:10;9.30;99.90
22532;DHT22;11432;46.924;7.114;2023-05-02T06:06:36;9.30;99.90
22532;DHT22;11432;46.924;7.114;2023-05-02T06:09:02;9.40;99.90
22532;DHT22;11432;46.924;7.114;2023-05-02T06:11:28;9.50;99.90
22532;DHT22;11432;46.924;7.114;2023-05-02T06:13:54;9.50;99.90
22532;DHT22;11432;46.924;7.114;2023-05-02T06:16:20;9.60;99.90
22532;DHT22;11432;46.924;7.114;2023-05-02T06:18:46;9.50;99.90
22532;DHT22;11432;46.924;7.114;2023-05-02T06:21:12;9.50;99.90
22532;DHT22;11432;46.924;7.114;2023-05-02T06:23:38;9.60;99.90
22532;DHT22;11432;46.924;7.114;2023-05-02T06:26:04;9.70;99.90
22532;DHT22;11432;46.924;7.114;2023-05-02T06:28:30;9.80;99.90
22532;DHT22;11432;46.924;7.114;2023-05-02T06:31:00;9.90;99.90
22532;DHT22;11432;46.924;7.114;2023-05-02T06:33:30;9.90;99.90
22532;DHT22;11432;46.924;7.114;2023-05-02T06:35:56;10.00;99.90
22532;DHT22;11432;46.924;7.114;2023-05-02T06:38:22;10.10;99.90
22532;DHT22;11432;46.924;7.114;2023-05-02T06:40:48;10.10;99.90
22532;DHT22;11432;46.924;7.114;2023-05-02T06:43:14;9.90;99.90
22532;DHT22;11432;46.924;7.114;2023-05-02T06:45:40;9.90;99.90
22532;DHT22;11432;46.924;7.114;2023-05-02T06:48:07;10.00;99.90
22532;DHT22;11432;46.924;7.114;2023-05-02T06:50:33;10.00;99.90
22532;DHT22;11432;46.924;7.114;2023-05-02T06:52:58;10.00;99.90
22532;DHT22;11432;46.924;7.114;2023-05-02T06:55:24;10.10;99.90
22532;DHT22;11432;46.924;7.114;2023-05-02T06:57:51;10.50;99.90
22532;DHT22;11432;46.924;7.114;2023-05-02T07:00:17;10.70;99.90
22532;DHT22;11432;46.924;7.114;2023-05-02T07:02:48;10.80;99.90
22532;DHT22;11432;46.924;7.114;2023-05-02T07:05:14;11.00;99.90
22532;DHT22;11432;46.924;7.114;2023-05-02T07:07:43;11.10;99.90
22532;DHT22;11432;46.924;7.114;2023-05-02T07:10:10;11.50;99.90
22532;DHT22;11432;46.924;7.114;2023-05-02T07:12:36;11.80;99.90
22532;DHT22;11432;46.924;7.114;2023-05-02T07:15:04;11.80;99.90
22532;DHT22;11432;46.924;7.114;2023-05-02T07:17:30;11.80;99.90
22532;DHT22;11432;46.924;7.114;2023-05-02T07:19:56;11.90;99.90
22532;DHT22;11432;46.924;7.114;2023-05-02T07:22:22;11.90;99.90
22532;DHT22;11432;46.924;7.114;2023-05-02T07:24:47;12.00;99.90
22532;DHT22;11432;46.924;7.114;2023-05-02T07:27:13;12.10;99.90
22532;DHT22;11432;46.924;7.114;2023-05-02T07:29:39;12.20;99.90
22532;DHT22;11432;46.924;7.114;2023-05-02T07:32:04;12.10;99.90
22532;DHT22;11432;46.924;7.114;2023-05-02T07:34:31;11.90;99.90
22532;DHT22;11432;46.924;7.114;2023-05-02T07:36:57;11.90;99.90
22532;DHT22;11432;46.924;7.114;2023-05-02T07:39:24;12.00;99.90
22532;DHT22;11432;46.924;7.114;2023-05-02T07:41:51;12.20;99.90
22532;DHT22;11432;46.924;7.114;2023-05-02T07:44:16;12.40;99.90
22532;DHT22;11432;46.924;7.114;2023-05-02T07:46:42;12.50;99.90
22532;DHT22;11432;46.924;7.114;2023-05-02T07:49:08;12.60;99.90
22532;DHT22;11432;46.924;7.114;2023-05-02T07:51:33;12.80;99.90
22532;DHT22;11432;46.924;7.114;2023-05-02T07:53:59;13.30;99.90
22532;DHT22;11432;46.924;7.114;2023-05-02T07:56:25;13.70;99.90
22532;DHT22;11432;46.924;7.114;2023-05-02T07:58:51;13.90;99.90
22532;DHT22;11432;46.924;7.114;2023-05-02T08:01:17;14.10;1.00
22532;DHT22;11432;46.924;7.114;2023-05-02T08:03:44;14.30;1.00
22532;DHT22;11432;46.924;7.114;2023-05-02T08:06:09;14.30;1.00
22532;DHT22;11432;46.924;7.114;2023-05-02T08:08:36;14.30;1.00
22532;DHT22;11432;46.924;7.114;2023-05-02T08:11:02;14.50;1.00
22532;DHT22;11432;46.924;7.114;2023-05-02T08:13:28;14.60;15.90
22532;DHT22;11432;46.924;7.114;2023-05-02T08:15:53;14.70;1.00
22532;DHT22;11432;46.924;7.114;2023-05-02T08:18:26;14.80;65.10
22532;DHT22;11432;46.924;7.114;2023-05-02T08:20:54;14.80;31.80
22532;DHT22;11432;46.924;7.114;2023-05-02T08:23:20;15.00;24.00
22532;DHT22;11432;46.924;7.114;2023-05-02T08:25:45;15.10;51.80
22532;DHT22;11432;46.924;7.114;2023-05-02T08:28:11;15.20;58.30
22532;DHT22;11432;46.924;7.114;2023-05-02T08:30:36;15.20;35.40
22532;DHT22;11432;46.924;7.114;2023-05-02T08:33:02;15.20;33.40
22532;DHT22;11432;46.924;7.114;2023-05-02T08:35:28;15.30;40.90
22532;DHT22;11432;46.924;7.114;2023-05-02T08:37:55;15.30;83.50
22532;DHT22;11432;46.924;7.114;2023-05-02T08:40:21;15.30;1.00
22532;DHT22;11432;46.924;7.114;2023-05-02T08:42:47;15.40;1.00
22532;DHT22;11432;46.924;7.114;2023-05-02T08:45:13;15.20;1.00
22532;DHT22;11432;46.924;7.114;2023-05-02T08:47:41;15.10;1.00
22532;DHT22;11432;46.924;7.114;2023-05-02T08:50:09;15.30;1.00
22532;DHT22;11432;46.924;7.114;2023-05-02T08:52:36;15.40;1.00
22532;DHT22;11432;46.924;7.114;2023-05-02T08:55:04;15.40;1.00
22532;DHT22;11432;46.924;7.114;2023-05-02T08:57:30;15.60;1.00
22532;DHT22;11432;46.924;7.114;2023-05-02T08:59:57;15.70;1.00
22532;DHT22;11432;46.924;7.114;2023-05-02T09:05:19;15.80;51.10
22532;DHT22;11432;46.924;7.114;2023-05-02T09:07:47;16.00;31.70
22532;DHT22;11432;46.924;7.114;2023-05-02T09:10:13;15.90;42.40
22532;DHT22;11432;46.924;7.114;2023-05-02T09:12:40;16.10;1.00
22532;DHT22;11432;46.924;7.114;2023-05-02T09:15:10;16.20;31.30
22532;DHT22;11432;46.924;7.114;2023-05-02T09:17:44;16.20;32.20
22532;DHT22;11432;46.924;7.114;2023-05-02T09:20:14;15.80;26.80
22532;DHT22;11432;46.924;7.114;2023-05-02T09:22:52;15.60;40.10
22532;DHT22;11432;46.924;7.114;2023-05-02T09:25:21;15.50;36.10
22532;DHT22;11432;46.924;7.114;2023-05-02T09:27:54;16.00;37.80
22532;DHT22;11432;46.924;7.114;2023-05-02T09:30:24;16.40;10.70
22532;DHT22;11432;46.924;7.114;2023-05-02T09:32:51;16.60;38.50
22532;DHT22;11432;46.924;7.114;2023-05-02T09:35:19;17.00;30.00
22532;DHT22;11432;46.924;7.114;2023-05-02T09:37:56;17.30;43.20
22532;DHT22;11432;46.924;7.114;2023-05-02T09:40:22;17.40;38.50
22532;DHT22;11432;46.924;7.114;2023-05-02T09:42:49;17.30;80.80
22532;DHT22;11432;46.924;7.114;2023-05-02T09:45:22;16.90;40.00
22532;DHT22;11432;46.924;7.114;2023-05-02T09:47:48;16.80;49.80
22532;DHT22;11432;46.924;7.114;2023-05-02T09:50:33;16.40;44.40
22532;DHT22;11432;46.924;7.114;2023-05-02T09:53:08;16.00;1.00
22532;DHT22;11432;46.924;7.114;2023-05-02T09:55:35;16.20;19.60
22532;DHT22;11432;46.924;7.114;2023-05-02T09:58:01;16.50;24.30
22532;DHT22;11432;46.924;7.114;2023-05-02T10:00:42;16.30;24.40
22532;DHT22;11432;46.924;7.114;2023-05-02T10:03:08;16.00;9.20
22532;DHT22;11432;46.924;7.114;2023-05-02T10:05:38;16.20;7.60
22532;DHT22;11432;46.924;7.114;2023-05-02T10:08:07;16.50;24.20
22532;DHT22;11432;46.924;7.114;2023-05-02T10:10:36;16.90;21.60
22532;DHT22;11432;46.924;7.114;2023-05-02T10:13:07;17.20;70.30
22532;DHT22;11432;46.924;7.114;2023-05-02T10:15:35;17.10;38.90
22532;DHT22;11432;46.924;7.114;2023-05-02T10:18:07;17.30;24.60
22532;DHT22;11432;46.924;7.114;2023-05-02T10:20:36;16.70;38.00
22532;DHT22;11432;46.924;7.114;2023-05-02T10:23:07;16.50;13.50
22532;DHT22;11432;46.924;7.114;2023-05-02T10:25:34;16.90;11.80
22532;DHT22;11432;46.924;7.114;2023-05-02T10:28:00;17.20;16.50
22532;DHT22;11432;46.924;7.114;2023-05-02T10:30:26;17.30;35.60
22532;DHT22;11432;46.924;7.114;2023-05-02T10:32:52;17.60;40.60
22532;DHT22;11432;46.924;7.114;2023-05-02T10:35:22;17.20;45.80
22532;DHT22;11432;46.924;7.114;2023-05-02T10:37:49;16.90;37.70
22532;DHT22;11432;46.924;7.114;2023-05-02T10:40:15;16.80;36.90
22532;DHT22;11432;46.924;7.114;2023-05-02T10:42:46;16.90;17.20
22532;DHT22;11432;46.924;7.114;2023-05-02T10:45:34;17.50;30.40
22532;DHT22;11432;46.924;7.114;2023-05-02T10:48:23;17.90;41.50
22532;DHT22;11432;46.924;7.114;2023-05-02T10:50:57;18.50;73.80
22532;DHT22;11432;46.924;7.114;2023-05-02T10:53:29;18.40;76.70
22532;DHT22;11432;46.924;7.114;2023-05-02T10:56:21;17.60;63.50
22532;DHT22;11432;46.924;7.114;2023-05-02T10:58:48;17.00;40.60
22532;DHT22;11432;46.924;7.114;2023-05-02T11:04:07;17.20;1.00
22532;DHT22;11432;46.924;7.114;2023-05-02T11:07:15;18.40;27.20
22532;DHT22;11432;46.924;7.114;2023-05-02T11:09:39;19.00;52.10
22532;DHT22;11432;46.924;7.114;2023-05-02T11:12:04;19.50;50.70
22532;DHT22;11432;46.924;7.114;2023-05-02T11:14:50;19.40;53.80
22532;DHT22;11432;46.924;7.114;2023-05-02T11:17:16;19.60;49.80
22532;DHT22;11432;46.924;7.114;2023-05-02T11:24:49;19.50;53.50
22532;DHT22;11432;46.924;7.114;2023-05-02T11:30:05;19.40;49.70
22532;DHT22;11432;46.924;7.114;2023-05-02T11:35:25;19.50;52.60
22532;DHT22;11432;46.924;7.114;2023-05-02T11:38:07;19.60;51.40
22532;DHT22;11432;46.924;7.114;2023-05-02T11:40:32;20.10;52.10
22532;DHT22;11432;46.924;7.114;2023-05-02T11:42:59;20.40;53.90
22532;DHT22;11432;46.924;7.114;2023-05-02T11:45:34;20.20;49.40
22532;DHT22;11432;46.924;7.114;2023-05-02T11:48:03;19.60;52.80
22532;DHT22;11432;46.924;7.114;2023-05-02T11:50:28;19.10;41.80
22532;DHT22;11432;46.924;7.114;2023-05-02T11:52:55;18.80;42.80
22532;DHT22;11432;46.924;7.114;2023-05-02T11:55:20;18.90;42.60
22532;DHT22;11432;46.924;7.114;2023-05-02T11:57:46;19.40;42.20
22532;DHT22;11432;46.924;7.114;2023-05-02T12:00:12;19.20;40.80
22532;DHT22;11432;46.924;7.114;2023-05-02T12:02:43;19.30;42.70
22532;DHT22;11432;46.924;7.114;2023-05-02T12:05:10;20.10;48.20
22532;DHT22;11432;46.924;7.114;2023-05-02T12:07:43;20.80;45.90
22532;DHT22;11432;46.924;7.114;2023-05-02T12:10:10;20.10;46.50
22532;DHT22;11432;46.924;7.114;2023-05-02T12:12:37;19.90;40.00
22532;DHT22;11432;46.924;7.114;2023-05-02T12:15:08;20.50;37.80
22532;DHT22;11432;46.924;7.114;2023-05-02T12:17:37;21.20;40.10
22532;DHT22;11432;46.924;7.114;2023-05-02T12:20:06;20.80;43.00
22532;DHT22;11432;46.924;7.114;2023-05-02T12:22:32;20.10;41.90
22532;DHT22;11432;46.924;7.114;2023-05-02T12:24:58;20.30;32.40
22532;DHT22;11432;46.924;7.114;2023-05-02T12:27:24;19.90;35.40
22532;DHT22;11432;46.924;7.114;2023-05-02T12:29:50;19.40;27.10
22532;DHT22;11432;46.924;7.114;2023-05-02T12:32:26;19.10;27.50
22532;DHT22;11432;46.924;7.114;2023-05-02T12:34:53;19.20;24.40
22532;DHT22;11432;46.924;7.114;2023-05-02T12:37:22;19.10;27.00
22532;DHT22;11432;46.924;7.114;2023-05-02T12:39:52;19.40;28.90
22532;DHT22;11432;46.924;7.114;2023-05-02T12:42:22;19.30;26.50
22532;DHT22;11432;46.924;7.114;2023-05-02T12:44:49;20.90;26.00
22532;DHT22;11432;46.924;7.114;2023-05-02T12:47:19;20.90;25.70
22532;DHT22;11432;46.924;7.114;2023-05-02T12:52:19;23.00;35.20
22532;DHT22;11432;46.924;7.114;2023-05-02T12:54:45;23.60;37.00
22532;DHT22;11432;46.924;7.114;2023-05-02T12:57:21;23.70;31.80
22532;DHT22;11432;46.924;7.114;2023-05-02T12:59:47;22.90;29.70
22532;DHT22;11432;46.924;7.114;2023-05-02T13:02:15;22.50;28.70
22532;DHT22;11432;46.924;7.114;2023-05-02T13:04:41;23.30;25.90
22532;DHT22;11432;46.924;7.114;2023-05-02T13:07:06;22.30;29.60
22532;DHT22;11432;46.924;7.114;2023-05-02T13:09:32;20.70;30.60
22532;DHT22;11432;46.924;7.114;2023-05-02T13:11:58;21.50;28.80
22532;DHT22;11432;46.924;7.114;2023-05-02T13:14:24;23.00;27.40
22532;DHT22;11432;46.924;7.114;2023-05-02T13:16:50;23.80;24.40
22532;DHT22;11432;46.924;7.114;2023-05-02T13:19:19;22.70;24.10
22532;DHT22;11432;46.924;7.114;2023-05-02T13:21:45;21.40;21.80
22532;DHT22;11432;46.924;7.114;2023-05-02T13:24:11;20.20;20.60
22532;DHT22;11432;46.924;7.114;2023-05-02T13:26:37;21.80;19.70
22532;DHT22;11432;46.924;7.114;2023-05-02T13:29:03;22.70;18.60
22532;DHT22;11432;46.924;7.114;2023-05-02T13:31:28;23.70;19.70
22532;DHT22;11432;46.924;7.114;2023-05-02T13:33:54;24.20;22.00
22532;DHT22;11432;46.924;7.114;2023-05-02T13:36:20;24.50;16.90
22532;DHT22;11432;46.924;7.114;2023-05-02T13:38:45;24.70;18.00
22532;DHT22;11432;46.924;7.114;2023-05-02T13:41:11;25.00;17.00
22532;DHT22;11432;46.924;7.114;2023-05-02T13:43:36;24.60;15.50
22532;DHT22;11432;46.924;7.114;2023-05-02T13:46:03;24.40;11.70
22532;DHT22;11432;46.924;7.114;2023-05-02T13:48:29;22.80;12.40
22532;DHT22;11432;46.924;7.114;2023-05-02T13:50:54;21.50;10.40
22532;DHT22;11432;46.924;7.114;2023-05-02T13:53:20;21.10;11.60
22532;DHT22;11432;46.924;7.114;2023-05-02T13:55:46;22.50;13.00
22532;DHT22;11432;46.924;7.114;2023-05-02T13:58:11;23.80;13.60
22532;DHT22;11432;46.924;7.114;2023-05-02T14:00:37;24.80;8.70
22532;DHT22;11432;46.924;7.114;2023-05-02T14:03:03;25.40;7.00
22532;DHT22;11432;46.924;7.114;2023-05-02T14:05:29;25.20;10.80
22532;DHT22;11432;46.924;7.114;2023-05-02T14:07:55;25.70;8.70
22532;DHT22;11432;46.924;7.114;2023-05-02T14:10:20;25.00;9.10
22532;DHT22;11432;46.924;7.114;2023-05-02T14:12:46;24.80;11.60
22532;DHT22;11432;46.924;7.114;2023-05-02T14:15:12;24.80;10.90
22532;DHT22;11432;46.924;7.114;2023-05-02T14:17:37;25.00;8.30
22532;DHT22;11432;46.924;7.114;2023-05-02T14:20:03;24.60;3.10
22532;DHT22;11432;46.924;7.114;2023-05-02T14:22:30;24.90;3.50
22532;DHT22;11432;46.924;7.114;2023-05-02T14:24:55;25.60;6.70
22532;DHT22;11432;46.924;7.114;2023-05-02T14:27:21;25.60;5.00
22532;DHT22;11432;46.924;7.114;2023-05-02T14:29:47;24.70;3.70
22532;DHT22;11432;46.924;7.114;2023-05-02T14:32:13;23.50;3.70
22532;DHT22;11432;46.924;7.114;2023-05-02T14:34:39;24.30;3.30
22532;DHT22;11432;46.924;7.114;2023-05-02T14:37:06;24.70;1.00
22532;DHT22;11432;46.924;7.114;2023-05-02T14:39:33;24.90;1.00
22532;DHT22;11432;46.924;7.114;2023-05-02T14:41:59;25.50;1.00
22532;DHT22;11432;46.924;7.114;2023-05-02T14:44:29;26.00;1.00
22532;DHT22;11432;46.924;7.114;2023-05-02T14:46:54;25.70;1.00
22532;DHT22;11432;46.924;7.114;2023-05-02T14:49:20;25.70;1.00
22532;DHT22;11432;46.924;7.114;2023-05-02T14:51:46;25.30;1.00
22532;DHT22;11432;46.924;7.114;2023-05-02T14:54:13;26.00;1.00
22532;DHT22;11432;46.924;7.114;2023-05-02T14:56:41;26.50;1.00
22532;DHT22;11432;46.924;7.114;2023-05-02T14:59:07;26.50;1.00
22532;DHT22;11432;46.924;7.114;2023-05-02T15:01:32;26.30;1.00
22532;DHT22;11432;46.924;7.114;2023-05-02T15:03:58;26.30;1.00
22532;DHT22;11432;46.924;7.114;2023-05-02T15:06:23;26.10;1.00
22532;DHT22;11432;46.924;7.114;2023-05-02T15:08:49;26.00;1.00
22532;DHT22;11432;46.924;7.114;2023-05-02T15:11:15;25.80;1.00
22532;DHT22;11432;46.924;7.114;2023-05-02T15:13:41;25.40;1.00
22532;DHT22;11432;46.924;7.114;2023-05-02T15:16:06;26.00;1.00
22532;DHT22;11432;46.924;7.114;2023-05-02T15:18:34;26.40;1.00
22532;DHT22;11432;46.924;7.114;2023-05-02T15:20:59;26.90;1.00
22532;DHT22;11432;46.924;7.114;2023-05-02T15:23:25;26.70;1.00
22532;DHT22;11432;46.924;7.114;2023-05-02T15:25:51;26.20;1.00
22532;DHT22;11432;46.924;7.114;2023-05-02T15:28:17;25.10;1.00
22532;DHT22;11432;46.924;7.114;2023-05-02T15:30:42;25.20;1.00
22532;DHT22;11432;46.924;7.114;2023-05-02T15:33:08;25.50;1.00
22532;DHT22;11432;46.924;7.114;2023-05-02T15:35:33;25.50;1.00
22532;DHT22;11432;46.924;7.114;2023-05-02T15:37:59;24.90;1.00
22532;DHT22;11432;46.924;7.114;2023-05-02T15:40:25;23.10;1.00
22532;DHT22;11432;46.924;7.114;2023-05-02T15:42:52;21.90;1.00
22532;DHT22;11432;46.924;7.114;2023-05-02T15:45:17;20.80;1.00
22532;DHT22;11432;46.924;7.114;2023-05-02T15:47:43;20.30;1.00
22532;DHT22;11432;46.924;7.114;2023-05-02T15:50:09;19.80;1.00
22532;DHT22;11432;46.924;7.114;2023-05-02T15:52:35;19.40;1.00
22532;DHT22;11432;46.924;7.114;2023-05-02T15:55:01;19.10;1.00
22532;DHT22;11432;46.924;7.114;2023-05-02T15:57:27;19.10;1.00
22532;DHT22;11432;46.924;7.114;2023-05-02T15:59:53;18.90;1.00
22532;DHT22;11432;46.924;7.114;2023-05-02T16:02:18;18.80;1.00
22532;DHT22;11432;46.924;7.114;2023-05-02T16:04:44;18.70;1.00
22532;DHT22;11432;46.924;7.114;2023-05-02T16:07:10;19.00;1.00
22532;DHT22;11432;46.924;7.114;2023-05-02T16:09:36;20.80;1.00
22532;DHT22;11432;46.924;7.114;2023-05-02T16:12:03;20.30;1.00
22532;DHT22;11432;46.924;7.114;2023-05-02T16:14:29;21.40;1.00
22532;DHT22;11432;46.924;7.114;2023-05-02T16:16:54;22.10;1.00
22532;DHT22;11432;46.924;7.114;2023-05-02T16:19:21;22.50;1.00
22532;DHT22;11432;46.924;7.114;2023-05-02T16:21:46;22.80;1.00